createdAt,value
2019-05-11T00:03:49.798Z,100644.43
2019-05-11T00:08:13.858Z,100639.78
2019-05-11T00:12:38.055Z,100634.38
2019-05-11T00:17:01.876Z,100638.02
2019-05-11T00:21:25.743Z,100636.25
2019-05-11T00:25:49.787Z,100630.75
2019-05-11T00:30:14.160Z,100631.17
2019-05-11T00:34:38.536Z,100631.80
2019-05-11T00:39:02.715Z,100635.08
2019-05-11T00:43:27.118Z,100630.81
2019-05-11T00:47:50.939Z,100628.95
2019-05-11T00:52:15.492Z,100626.23
2019-05-11T00:56:39.674Z,100620.39
2019-05-11T01:01:03.776Z,100624.66
2019-05-11T01:05:27.635Z,100615.56
2019-05-11T01:09:51.741Z,100615.56
2019-05-11T01:14:15.695Z,100610.16
2019-05-11T01:18:39.947Z,100613.69
2019-05-11T01:23:03.830Z,100610.73
2019-05-11T01:27:27.678Z,100613.33
2019-05-11T01:31:51.487Z,100609.88
2019-05-11T01:36:16.010Z,100607.38
2019-05-11T01:40:39.880Z,100598.82
2019-05-11T01:45:03.764Z,100597.13
2019-05-11T01:49:27.565Z,100604.03
2019-05-11T01:53:51.825Z,100619.73
2019-05-11T01:58:15.830Z,100633.98
2019-05-11T02:02:39.819Z,100622.47
2019-05-11T02:07:03.687Z,100618.00
2019-05-11T02:11:27.524Z,100624.52
2019-05-11T02:15:51.731Z,100610.00
2019-05-11T02:20:17.121Z,100609.26
2019-05-11T02:24:40.940Z,100617.63
2019-05-11T02:29:05.709Z,100599.30
2019-05-11T02:33:29.662Z,100605.16
2019-05-11T02:37:53.569Z,100601.27
2019-05-11T02:42:17.677Z,100601.08
2019-05-11T02:46:41.505Z,100602.82
2019-05-11T02:51:04.433Z,100609.59
2019-05-11T02:55:27.024Z,100597.48
2019-05-11T02:59:49.484Z,100595.45
2019-05-11T03:04:12.172Z,100602.13
2019-05-11T03:08:34.589Z,100616.26
2019-05-11T03:12:58.920Z,100613.92
2019-05-11T03:17:27.929Z,100616.72
2019-05-11T03:21:52.232Z,100613.44
2019-05-11T03:26:16.334Z,100612.69
2019-05-11T03:30:40.618Z,100617.34
2019-05-11T03:35:06.578Z,100625.86
2019-05-11T03:39:32.147Z,100625.50
2019-05-11T03:43:56.220Z,100631.16
2019-05-11T03:48:20.493Z,100639.97
2019-05-11T03:52:44.514Z,100643.22
2019-05-11T03:57:08.711Z,100646.75
2019-05-11T04:01:32.728Z,100646.92
2019-05-11T04:05:56.915Z,100648.56
2019-05-11T04:10:24.890Z,100652.38
2019-05-11T04:14:45.373Z,100653.77
2019-05-11T04:19:08.441Z,100656.47
2019-05-11T04:23:33.453Z,100654.81
2019-05-11T04:27:58.486Z,100648.56
2019-05-11T04:32:22.672Z,100638.45
2019-05-11T04:36:46.573Z,100633.45
2019-05-11T04:41:11.066Z,100633.05
2019-05-11T04:45:34.859Z,100637.31
2019-05-11T04:49:58.673Z,100636.95
2019-05-11T04:54:22.770Z,100633.02
2019-05-11T04:58:46.726Z,100642.40
2019-05-11T05:03:10.798Z,100645.45
2019-05-11T05:07:34.611Z,100646.20
2019-05-11T05:11:59.889Z,100647.06
2019-05-11T05:16:23.697Z,100652.87
2019-05-11T05:20:47.750Z,100660.72
2019-05-11T05:25:13.464Z,100663.22
2019-05-11T05:29:37.364Z,100659.22
2019-05-11T05:34:02.240Z,100660.78
2019-05-11T05:38:26.184Z,100667.48
2019-05-11T05:42:50.167Z,100667.13
2019-05-11T05:47:12.807Z,100674.13
2019-05-11T05:51:35.476Z,100675.53
2019-05-11T05:55:58.196Z,100681.63
2019-05-11T06:00:20.706Z,100686.57
2019-05-11T06:04:43.142Z,100692.70
2019-05-11T06:09:06.538Z,100689.47
2019-05-11T06:13:44.063Z,100689.04
2019-05-11T06:17:53.410Z,100692.78
2019-05-11T06:22:15.831Z,100693.12
2019-05-11T06:26:38.258Z,100698.87
2019-05-11T06:31:03.208Z,100695.40
2019-05-11T06:35:27.176Z,100700.10
2019-05-11T06:39:51.923Z,100700.10
2019-05-11T06:44:15.731Z,100703.41
2019-05-11T06:48:39.639Z,100714.64
2019-05-11T06:53:03.514Z,100714.64
2019-05-11T06:57:28.548Z,100715.20
2019-05-11T07:01:52.367Z,100719.69
2019-05-11T07:06:17.626Z,100721.59
2019-05-11T07:10:41.537Z,100728.21
2019-05-11T07:15:06.349Z,100742.12
2019-05-11T07:19:30.314Z,100742.98
2019-05-11T07:23:54.699Z,100742.98
2019-05-11T07:28:18.870Z,100746.91
2019-05-11T07:32:42.918Z,100749.03
2019-05-11T07:37:08.257Z,100748.33
2019-05-11T07:41:32.352Z,100755.13
2019-05-11T07:45:58.373Z,100755.13
2019-05-11T07:50:21.897Z,100766.83
2019-05-11T07:54:51.854Z,100767.52
2019-05-11T07:59:10.326Z,100773.27
2019-05-11T08:03:33.113Z,100765.68
2019-05-11T08:07:56.130Z,100773.09
2019-05-11T08:12:20.020Z,100781.27
2019-05-11T08:16:42.750Z,100781.29
2019-05-11T08:21:05.223Z,100774.17
2019-05-11T08:25:28.806Z,100779.61
2019-05-11T08:29:51.582Z,100779.61
2019-05-11T08:34:14.336Z,100784.87
2019-05-11T08:38:38.408Z,100792.32
2019-05-11T08:43:02.605Z,100802.95
2019-05-11T08:47:28.360Z,100819.05
2019-05-11T08:51:51.984Z,100829.89
2019-05-11T08:56:15.783Z,100832.02
2019-05-11T09:00:39.930Z,100835.58
2019-05-11T09:05:04.102Z,100842.85
2019-05-11T09:09:28.913Z,100839.53
2019-05-11T09:13:53.206Z,100840.97
2019-05-11T09:18:18.779Z,100840.97
2019-05-11T09:22:42.877Z,100839.74
2019-05-11T09:27:07.788Z,100843.13
2019-05-11T09:31:31.715Z,100856.34
2019-05-11T09:35:58.120Z,100856.86
2019-05-11T09:40:21.411Z,100864.80
2019-05-11T09:44:45.428Z,100878.02
2019-05-11T09:49:09.546Z,100877.22
2019-05-11T09:53:33.351Z,100883.23
2019-05-11T09:57:58.007Z,100902.75
2019-05-11T10:02:21.981Z,100902.75
2019-05-11T10:06:48.018Z,100902.09
2019-05-11T10:11:11.740Z,100904.40
2019-05-11T10:15:35.560Z,100895.91
2019-05-11T10:20:00.546Z,100900.12
2019-05-11T10:24:24.647Z,100915.47
2019-05-11T10:28:48.530Z,100914.14
2019-05-11T10:33:12.576Z,100917.57
2019-05-11T10:37:35.218Z,100924.77
2019-05-11T10:41:58.311Z,100933.53
2019-05-11T10:46:23.446Z,100946.18
2019-05-11T10:50:48.245Z,100942.33
2019-05-11T10:55:12.387Z,100950.98
2019-05-11T10:59:38.603Z,100955.90
2019-05-11T11:04:02.037Z,100955.90
2019-05-11T11:08:27.845Z,100964.26
2019-05-11T11:12:52.142Z,100958.56
2019-05-11T11:17:15.930Z,100966.11
2019-05-11T11:21:40.261Z,100966.05
2019-05-11T11:26:08.006Z,100957.73
2019-05-11T11:30:31.513Z,100955.91
2019-05-11T11:34:57.564Z,100963.41
2019-05-11T11:39:21.049Z,100963.41
2019-05-11T11:43:44.849Z,100973.78
2019-05-11T11:48:09.251Z,100986.14
2019-05-11T11:52:34.704Z,100996.06
2019-05-11T11:56:59.590Z,100998.08
2019-05-11T12:01:23.691Z,100993.69
2019-05-11T12:05:48.080Z,101008.55
2019-05-11T12:10:11.943Z,101014.38
2019-05-11T12:14:35.747Z,101017.91
2019-05-11T12:18:59.541Z,101018.03
2019-05-11T12:23:23.637Z,101031.05
2019-05-11T12:27:49.000Z,101031.05
2019-05-11T12:32:19.196Z,101027.90
2019-05-11T12:36:43.029Z,101038.98
2019-05-11T12:41:08.783Z,101045.16
2019-05-11T12:45:32.752Z,101046.03
2019-05-11T12:49:58.498Z,101045.64
2019-05-11T12:54:22.412Z,101060.23
2019-05-11T12:58:46.237Z,101063.72
2019-05-11T13:03:10.212Z,101083.50
2019-05-11T13:07:32.999Z,101090.66
2019-05-11T13:11:58.779Z,101096.68
2019-05-11T13:16:22.781Z,101094.56
2019-05-11T13:20:48.238Z,101101.86
2019-05-11T13:25:12.565Z,101119.83
2019-05-11T13:29:37.893Z,101116.69
2019-05-11T13:34:01.683Z,101121.36
2019-05-11T13:38:28.108Z,101125.57
2019-05-11T13:42:51.921Z,101134.89
2019-05-11T13:47:17.997Z,101142.43
2019-05-11T13:51:41.549Z,101150.08
2019-05-11T13:56:08.072Z,101141.73
2019-05-11T14:00:31.691Z,101147.73
2019-05-11T14:04:58.227Z,101166.52
2019-05-11T14:09:21.570Z,101173.55
2019-05-11T14:13:47.815Z,101177.95
2019-05-11T14:18:12.168Z,101189.61
2019-05-11T14:22:38.526Z,101201.09
2019-05-11T14:27:01.753Z,101201.09
2019-05-11T14:31:27.468Z,101199.77
2019-05-11T14:35:51.029Z,101209.56
2019-05-11T14:40:14.906Z,101222.22
2019-05-11T14:44:38.716Z,101234.23
2019-05-11T14:49:02.832Z,101230.46
2019-05-11T14:53:25.369Z,101250.48
2019-05-11T14:57:48.563Z,101253.94
2019-05-11T15:02:28.936Z,101263.47
2019-05-11T15:06:51.364Z,101271.45
2019-05-11T15:11:13.793Z,101276.90
2019-05-11T15:15:39.445Z,101299.73
2019-05-11T15:20:03.526Z,101303.98
2019-05-11T15:24:28.910Z,101314.70
2019-05-11T15:28:52.731Z,101314.70
2019-05-11T15:33:15.279Z,101320.69
2019-05-11T15:37:38.521Z,101318.73
2019-05-11T15:42:10.288Z,101329.33
2019-05-11T15:46:25.452Z,101342.88
2019-05-11T15:50:48.696Z,101346.77
2019-05-11T15:55:11.494Z,101357.13
2019-05-11T15:59:33.971Z,101366.61
2019-05-11T16:03:58.291Z,101366.61
2019-05-11T16:08:20.762Z,101381.20
2019-05-11T16:12:42.332Z,101394.84
2019-05-11T16:17:04.167Z,101401.42
2019-05-11T16:21:25.724Z,101419.35
2019-05-11T16:25:48.845Z,101434.15
2019-05-11T16:30:10.932Z,101449.50
2019-05-11T16:34:32.606Z,101442.19
2019-05-11T16:38:54.199Z,101449.36
2019-05-11T16:43:15.885Z,101466.20
2019-05-11T16:47:39.084Z,101474.98
2019-05-11T16:52:01.164Z,101476.12
2019-05-11T16:56:23.022Z,101494.41
2019-05-11T17:00:44.597Z,101504.63
2019-05-11T17:05:07.671Z,101508.95
2019-05-11T17:09:29.311Z,101516.48
2019-05-11T17:13:51.253Z,101521.23
2019-05-11T17:18:12.953Z,101539.13
2019-05-11T17:22:34.602Z,101547.52
2019-05-11T17:26:58.244Z,101555.04
2019-05-11T17:31:19.546Z,101554.08
2019-05-11T17:35:42.162Z,101565.27
2019-05-11T17:40:03.808Z,101565.27
2019-05-11T17:44:25.455Z,101587.61
2019-05-11T17:48:47.277Z,101589.33
2019-05-11T17:53:09.538Z,101596.09
2019-05-11T17:57:31.113Z,101600.02
2019-05-11T18:01:53.225Z,101608.83
2019-05-11T18:06:18.450Z,101620.50
2019-05-11T18:10:42.316Z,101632.17
2019-05-11T18:15:08.306Z,101638.84
2019-05-11T18:19:32.304Z,101648.27
2019-05-11T18:23:59.916Z,101673.38
2019-05-11T18:28:23.770Z,101673.38
2019-05-11T18:32:48.990Z,101698.37
2019-05-11T18:37:13.663Z,101698.37
2019-05-11T18:41:39.050Z,101704.25
2019-05-11T18:46:03.468Z,101707.75
2019-05-11T18:50:30.834Z,101723.03
2019-05-11T18:54:57.844Z,101731.89
2019-05-11T18:59:22.987Z,101744.80
2019-05-11T19:03:47.867Z,101758.06
2019-05-11T19:08:09.948Z,101758.06
2019-05-11T19:12:31.564Z,101770.77
2019-05-11T19:16:53.204Z,101780.13
2019-05-11T19:21:15.121Z,101793.64
2019-05-11T19:25:37.580Z,101801.73
2019-05-11T19:29:59.366Z,101801.73
2019-05-11T19:34:21.483Z,101810.95
2019-05-11T19:38:44.920Z,101819.58
2019-05-11T19:43:09.014Z,101828.06
2019-05-11T19:47:33.016Z,101837.20
2019-05-11T19:51:57.789Z,101857.34
2019-05-11T19:56:23.357Z,101868.58
2019-05-11T20:00:48.817Z,101879.45
2019-05-11T20:05:13.641Z,101879.45
2019-05-11T20:09:38.714Z,101886.89
2019-05-11T20:14:02.722Z,101886.97
2019-05-11T20:18:28.673Z,101884.30
2019-05-11T20:22:52.026Z,101893.42
2019-05-11T20:27:15.864Z,101911.73
2019-05-11T20:31:39.658Z,101916.79
2019-05-11T20:36:03.650Z,101931.64
2019-05-11T20:40:28.561Z,101943.34
2019-05-11T20:44:52.529Z,101948.73
2019-05-11T20:49:16.625Z,101950.62
2019-05-11T20:53:40.644Z,101962.55
2019-05-11T20:58:05.732Z,101959.05
2019-05-11T21:02:30.474Z,101959.05
2019-05-11T21:06:54.568Z,101973.14
2019-05-11T21:11:18.385Z,101975.02
2019-05-11T21:15:42.414Z,101984.80
2019-05-11T21:20:10.004Z,101987.25
2019-05-11T21:24:33.810Z,101987.25
2019-05-11T21:28:58.056Z,101994.03
2019-05-11T21:33:21.969Z,102005.88
2019-05-11T21:37:45.782Z,102017.92
2019-05-11T21:42:08.201Z,102017.70
2019-05-11T21:46:30.705Z,102026.90
2019-05-11T21:50:53.267Z,102034.42
2019-05-11T21:55:16.130Z,102046.61
2019-05-11T21:59:39.974Z,102039.30
2019-05-11T22:04:03.778Z,102053.33
2019-05-11T22:08:28.334Z,102056.23
2019-05-11T22:12:52.184Z,102066.41
2019-05-11T22:17:18.199Z,102064.86
2019-05-11T22:21:41.871Z,102072.42
2019-05-11T22:26:07.725Z,102075.73
2019-05-11T22:30:31.485Z,102069.42
2019-05-11T22:34:55.555Z,102068.38
2019-05-11T22:39:20.821Z,102083.43
2019-05-11T22:43:45.063Z,102086.92
2019-05-11T22:48:09.140Z,102086.92
2019-05-11T22:52:36.549Z,102095.27
2019-05-11T22:56:58.748Z,102096.27
2019-05-11T23:01:21.601Z,102109.08
2019-05-11T23:05:44.004Z,102114.06
2019-05-11T23:10:08.590Z,102129.88
2019-05-11T23:14:31.044Z,102124.69
2019-05-11T23:18:53.464Z,102131.20
2019-05-11T23:23:18.146Z,102133.18
2019-05-11T23:27:42.215Z,102143.03
2019-05-11T23:32:08.564Z,102153.59
2019-05-11T23:36:31.902Z,102157.97
2019-05-11T23:40:55.722Z,102166.75
2019-05-11T23:45:20.195Z,102172.43
2019-05-11T23:49:45.332Z,102180.80
2019-05-11T23:54:09.442Z,102185.50
2019-05-11T23:58:33.718Z,102184.36
